Time;durP1;ratioP1;P1;durP2;ratioP2;P2;SDS_P1;SDS_P2;PMS_P1;PMS_P2;Temp;Humidity;BMP_temperature;BMP_pressure;BME280_temperature;BME280_humidity;BME280_pressure;Samples;Min_cycle;Max_cycle;Signal;HPM_P1;HPM_P2
2022/07/19 00:02:44;;;;;;;2.65;1.72;;;;;;;13.45;67.62;101201.22;1777486;80;21212;-57
2022/07/19 00:05:51;;;;;;;3.30;1.77;;;;;;;13.42;67.68;101197.45;1737383;82;21208;-56
2022/07/19 00:08:58;;;;;;;2.00;1.80;;;;;;;13.40;67.86;101192.63;1745660;81;21357;-56
2022/07/19 00:12:04;;;;;;;3.75;1.87;;;;;;;13.37;67.88;101205.86;1750038;81;21193;-56
2022/07/19 00:15:12;;;;;;;2.83;1.87;;;;;;;13.33;67.88;101197.09;1777928;80;21243;-56
2022/07/19 00:18:18;;;;;;;3.50;1.80;;;;;;;13.29;67.83;101200.37;1769221;81;21193;-57
2022/07/19 00:21:26;;;;;;;3.00;1.72;;;;;;;13.27;67.93;101199.70;1777301;80;21184;-57
2022/07/19 00:24:34;;;;;;;4.80;1.85;;;;;;;13.22;67.95;101207.07;1768451;81;21192;-57
2022/07/19 00:27:41;;;;;;;3.55;1.77;;;;;;;13.21;68.05;101201.24;1778003;80;21200;-54
2022/07/19 00:30:47;;;;;;;2.77;1.80;;;;;;;13.22;68.20;101201.58;1769588;81;21338;-54
2022/07/19 00:33:54;;;;;;;4.25;1.80;;;;;;;13.22;68.37;101198.83;1777616;78;21165;-56
2022/07/19 00:37:01;;;;;;;2.80;2.08;;;;;;;13.21;68.43;101190.25;1788029;80;21225;-56
2022/07/19 00:40:08;;;;;;;2.25;1.70;;;;;;;13.20;68.40;101197.30;1768318;81;21189;-56
2022/07/19 00:43:13;;;;;;;5.67;3.60;;;;;;;13.17;68.42;101197.14;1768396;81;21261;-56
2022/07/19 00:46:27;;;;;;;7.62;5.28;;;;;;;13.16;68.48;101195.40;1768342;81;21272;-56
2022/07/19 00:49:33;;;;;;;3.90;2.15;;;;;;;13.16;68.58;101196.77;1768381;81;21228;-55
2022/07/19 00:52:38;;;;;;;2.33;1.90;;;;;;;13.15;68.70;101196.95;1768406;80;21749;-55
2022/07/19 00:55:42;;;;;;;3.12;2.00;;;;;;;13.14;68.71;101191.98;1785278;80;21227;-56
2022/07/19 00:58:49;;;;;;;2.27;2.07;;;;;;;13.12;68.71;101191.30;1768833;80;21174;-56
2022/07/19 01:01:54;;;;;;;3.25;1.82;;;;;;;13.10;68.72;101188.36;1768888;80;21723;-56
2022/07/19 01:05:00;;;;;;;2.35;2.00;;;;;;;13.11;68.88;101188.17;1768385;81;21185;-56
2022/07/19 01:08:06;;;;;;;2.00;1.80;;;;;;;13.08;68.80;101189.06;1768379;81;21214;-56
2022/07/19 01:11:13;;;;;;;3.22;1.90;;;;;;;13.05;68.86;101190.78;1768434;81;21320;-56
2022/07/19 01:14:19;;;;;;;3.05;2.05;;;;;;;13.04;68.98;101190.42;1768375;81;21218;-55
2022/07/19 01:17:24;;;;;;;4.08;2.15;;;;;;;13.02;69.09;101187.84;1768405;81;21256;-55
2022/07/19 01:20:32;;;;;;;3.85;1.92;;;;;;;13.01;69.12;101194.39;1785339;79;21263;-55
2022/07/19 01:23:38;;;;;;;2.52;2.15;;;;;;;12.98;69.15;101201.58;1780120;79;21173;-56
2022/07/19 01:26:44;;;;;;;3.20;2.10;;;;;;;12.94;69.12;101200.18;1791752;80;21248;-55
2022/07/19 01:29:51;;;;;;;2.77;1.82;;;;;;;12.93;69.12;101202.59;1782377;80;21343;-55
2022/07/19 01:32:58;;;;;;;2.10;1.90;;;;;;;12.93;69.17;101204.48;1768470;80;21213;-56
2022/07/19 01:36:05;;;;;;;4.25;2.20;;;;;;;12.90;69.25;101194.70;1767376;80;21209;-56
2022/07/19 01:39:10;;;;;;;4.10;2.12;;;;;;;12.87;69.19;101201.91;1768744;80;21167;-57
2022/07/19 01:42:17;;;;;;;4.28;2.37;;;;;;;12.83;69.13;101208.77;1768534;80;21243;-57
2022/07/19 01:45:23;;;;;;;3.47;1.75;;;;;;;12.82;69.26;101208.42;1768351;80;21332;-57
2022/07/19 01:48:29;;;;;;;3.65;2.10;;;;;;;12.80;69.30;101206.86;1768429;80;21192;-55
2022/07/19 01:51:36;;;;;;;3.62;2.12;;;;;;;12.79;69.40;101210.14;1768279;80;21233;-55
2022/07/19 01:54:42;;;;;;;2.80;2.17;;;;;;;12.78;69.54;101205.66;1768652;80;21194;-56
2022/07/19 01:57:47;;;;;;;6.03;2.50;;;;;;;12.77;69.61;101203.95;1768552;80;21217;-56
2022/07/19 02:00:53;;;;;;;3.15;2.27;;;;;;;12.77;69.66;101212.20;1768441;79;21249;-56
2022/07/19 02:04:00;;;;;;;7.78;3.60;;;;;;;12.74;69.58;101214.41;1768340;80;21216;-56
2022/07/19 02:07:06;;;;;;;3.05;2.67;;;;;;;12.71;69.63;101215.63;1768058;80;21272;-56
2022/07/19 02:10:15;;;;;;;7.62;2.60;;;;;;;12.70;69.71;101218.01;1768598;80;21722;-57
2022/07/19 02:13:22;;;;;;;3.17;2.27;;;;;;;12.70;69.79;101222.12;1763484;81;21181;-56
2022/07/19 02:16:29;;;;;;;3.33;2.70;;;;;;;12.69;69.84;101218.18;1768324;80;21328;-56
2022/07/19 02:19:35;;;;;;;2.83;2.08;;;;;;;12.69;69.92;101224.55;1768316;80;21178;-56
2022/07/19 02:22:42;;;;;;;4.53;2.42;;;;;;;12.67;69.77;101223.01;1768641;80;21242;-56
2022/07/19 02:25:47;;;;;;;3.40;2.50;;;;;;;12.63;69.66;101221.11;1768926;80;21185;-56
2022/07/19 02:28:53;;;;;;;5.30;2.30;;;;;;;12.63;69.73;101222.98;1768766;80;21248;-57
2022/07/19 02:32:00;;;;;;;4.53;3.10;;;;;;;12.64;69.84;101226.06;1767992;80;21205;-57
2022/07/19 02:35:06;;;;;;;4.62;3.10;;;;;;;12.65;69.94;101230.05;1767989;80;21797;-57
2022/07/19 02:38:11;;;;;;;4.53;3.33;;;;;;;12.67;70.03;101232.09;1776863;80;21216;-58
2022/07/19 02:41:17;;;;;;;6.87;3.37;;;;;;;12.68;70.10;101228.33;1777398;80;21215;-57
2022/07/19 02:44:23;;;;;;;5.12;3.75;;;;;;;12.70;70.10;101233.12;1768993;81;21232;-57
2022/07/19 02:47:31;;;;;;;3.22;2.90;;;;;;;12.73;70.17;101231.41;1776352;80;21236;-57
2022/07/19 02:50:40;;;;;;;4.67;3.15;;;;;;;12.77;70.22;101238.80;1769024;81;21204;-56
2022/07/19 02:53:45;;;;;;;6.72;3.70;;;;;;;12.78;70.28;101242.75;1768096;81;21212;-57
2022/07/19 02:56:52;;;;;;;4.67;2.98;;;;;;;12.82;70.30;101240.03;1768069;81;21213;-57
2022/07/19 02:59:59;;;;;;;5.37;4.10;;;;;;;12.86;70.32;101244.67;1768930;81;21228;-56
2022/07/19 03:06:28;;;;;;;7.75;6.25;;;;;;;12.95;70.39;101242.27;1731044;82;21228;-56
2022/07/19 03:09:36;;;;;;;6.35;4.95;;;;;;;13.01;70.43;101245.24;1738243;82;21212;-57
2022/07/19 03:12:43;;;;;;;7.70;4.67;;;;;;;13.07;70.47;101247.80;1738959;82;21248;-55
2022/07/19 03:15:50;;;;;;;5.90;3.47;;;;;;;13.14;70.54;101242.85;1739610;82;21677;-58
2022/07/19 03:18:56;;;;;;;4.03;3.47;;;;;;;13.22;70.61;101244.73;1738824;82;21255;-56
2022/07/19 03:22:01;;;;;;;6.33;3.80;;;;;;;13.30;70.72;101245.56;1738055;82;21222;-56
2022/07/19 03:25:10;;;;;;;5.47;4.92;;;;;;;13.41;70.80;101253.47;1738216;82;21200;-56
2022/07/19 03:28:18;;;;;;;6.80;5.85;;;;;;;13.50;70.83;101246.08;1718787;83;21720;-56
2022/07/19 03:31:23;;;;;;;9.80;6.33;;;;;;;13.58;70.90;101241.95;1706003;83;21767;-56
2022/07/19 03:34:29;;;;;;;9.23;7.40;;;;;;;13.69;70.91;101249.84;1706022;83;21216;-56
2022/07/19 03:37:35;;;;;;;9.43;8.40;;;;;;;13.77;70.97;101253.08;1712272;80;21200;-55
2022/07/19 03:40:42;;;;;;;9.43;7.80;;;;;;;13.85;71.01;101252.56;1739519;82;21331;-57
2022/07/19 03:43:48;;;;;;;6.00;5.20;;;;;;;13.94;71.04;101263.88;1765567;81;21224;-57
2022/07/19 03:46:54;;;;;;;4.37;3.50;;;;;;;14.01;71.04;101258.02;1774803;80;21216;-58
2022/07/19 03:50:01;;;;;;;5.45;3.10;;;;;;;14.08;71.07;101264.52;1774655;81;21161;-58
2022/07/19 03:53:08;;;;;;;4.33;2.40;;;;;;;14.17;71.11;101266.75;1774661;81;21200;-58
2022/07/19 03:56:17;;;;;;;3.70;2.70;;;;;;;14.23;71.12;101262.77;1774572;81;21283;-58
2022/07/19 03:59:25;;;;;;;3.22;2.58;;;;;;;14.30;71.17;101257.44;1774830;80;21157;-58
2022/07/19 04:02:32;;;;;;;3.05;2.27;;;;;;;14.39;71.25;101258.61;1774752;81;21622;-58
2022/07/19 04:05:37;;;;;;;3.05;2.42;;;;;;;14.49;71.26;101260.60;1774773;81;21180;-57
2022/07/19 04:08:44;;;;;;;3.80;2.20;;;;;;;14.59;71.27;101267.27;1774833;81;21188;-57
2022/07/19 04:11:52;;;;;;;2.52;2.33;;;;;;;14.68;71.29;101260.16;1774699;81;21283;-56
2022/07/19 04:14:58;;;;;;;3.37;2.50;;;;;;;14.78;71.32;101262.68;1774334;81;21204;-57
2022/07/19 04:18:05;;;;;;;8.60;2.70;;;;;;;14.87;71.38;101263.83;1774623;81;21211;-56
2022/07/19 04:21:14;;;;;;;5.00;2.65;;;;;;;14.99;71.45;101269.80;1774872;79;21276;-56
2022/07/19 04:24:21;;;;;;;4.00;2.52;;;;;;;15.10;71.52;101265.23;1754490;79;21239;-57
2022/07/19 04:27:30;;;;;;;3.75;2.20;;;;;;;15.21;71.53;101258.41;1783229;79;21200;-56
2022/07/19 04:30:37;;;;;;;3.90;2.20;;;;;;;15.30;71.59;101257.33;1774274;81;21315;-56
2022/07/19 04:33:43;;;;;;;6.20;2.50;;;;;;;15.42;71.62;101261.38;1774816;81;21307;-56
2022/07/19 04:36:50;;;;;;;3.25;2.35;;;;;;;15.52;71.67;101258.72;1774686;81;21256;-56
2022/07/19 04:39:55;;;;;;;4.97;2.70;;;;;;;15.63;71.70;101261.03;1770234;80;21252;-57
2022/07/19 04:43:02;;;;;;;3.30;2.22;;;;;;;15.73;71.75;101258.84;1787357;79;21563;-56
2022/07/19 04:46:09;;;;;;;2.98;2.33;;;;;;;15.84;71.80;101258.38;1784615;79;21232;-55
2022/07/19 04:49:17;;;;;;;5.00;2.30;;;;;;;15.96;71.85;101264.30;1791161;79;21189;-56
2022/07/19 04:52:23;;;;;;;5.67;2.40;;;;;;;16.07;71.91;101256.42;1774091;80;21725;-56
2022/07/19 04:55:30;;;;;;;3.02;2.25;;;;;;;16.19;71.94;101263.17;1779028;79;21253;-57
2022/07/19 04:58:38;;;;;;;2.87;2.10;;;;;;;16.30;71.98;101258.54;1769211;81;21189;-58
2022/07/19 05:01:48;;;;;;;3.00;2.30;;;;;;;16.42;72.03;101254.27;1777453;79;21407;-57
2022/07/19 05:05:01;;;;;;;4.55;2.15;;;;;;;16.54;72.04;101256.02;1769187;80;21201;-56
2022/07/19 05:08:13;;;;;;;3.33;2.20;;;;;;;16.66;72.06;101260.53;1736484;81;21201;-57
2022/07/19 05:11:20;;;;;;;4.08;2.47;;;;;;;16.77;72.09;101256.75;1750737;81;21213;-57
2022/07/19 05:14:26;;;;;;;3.00;2.22;;;;;;;16.89;72.15;101257.08;1737112;82;21173;-57
2022/07/19 05:17:36;;;;;;;2.83;2.27;;;;;;;17.00;72.23;101251.89;1738513;81;21284;-57
2022/07/19 05:20:45;;;;;;;3.72;2.17;;;;;;;17.12;72.28;101255.01;1741970;80;21587;-56
2022/07/19 05:23:52;;;;;;;6.85;2.20;;;;;;;17.25;72.36;101255.98;1736213;82;21348;-56
2022/07/19 05:26:59;;;;;;;3.12;1.77;;;;;;;17.37;72.36;101257.70;1736648;82;21248;-59
2022/07/19 05:30:10;;;;;;;2.10;1.70;;;;;;;17.49;72.36;101261.16;1737183;82;21201;-56
2022/07/19 05:33:18;;;;;;;1.80;1.70;;;;;;;17.60;72.38;101252.85;1737119;82;21181;-56
2022/07/19 05:36:24;;;;;;;3.27;1.80;;;;;;;17.70;72.37;101254.73;1758590;79;21786;-55
2022/07/19 05:39:31;;;;;;;3.08;1.85;;;;;;;17.81;72.39;101252.79;1766124;79;21371;-55
2022/07/19 05:42:38;;;;;;;2.22;1.70;;;;;;;17.93;72.39;101258.12;1775690;79;21745;-57
2022/07/19 05:45:49;;;;;;;2.20;1.72;;;;;;;18.06;72.40;101257.35;1745201;80;21208;-57
2022/07/19 05:49:00;;;;;;;4.22;2.00;;;;;;;18.19;72.43;101258.27;1735055;82;21360;-58
2022/07/19 05:52:05;;;;;;;3.27;1.82;;;;;;;18.31;72.41;101252.50;1734760;81;21236;-56
2022/07/19 05:55:20;;;;;;;4.65;2.10;;;;;;;18.42;72.36;101254.73;1727209;82;21275;-57
2022/07/19 05:58:24;;;;;;;1.53;1.40;;;;;;;18.54;72.33;101253.59;1752943;82;21172;-57
2022/07/19 06:01:33;;;;;;;6.62;1.47;;;;;;;18.66;72.31;101258.89;1769554;80;21212;-57
2022/07/19 06:04:40;;;;;;;1.30;1.20;;;;;;;18.80;72.31;101260.13;1797085;79;21184;-57
2022/07/19 06:07:47;;;;;;;1.22;1.00;;;;;;;18.93;72.28;101250.44;1765597;79;21742;-57
2022/07/19 06:10:54;;;;;;;5.20;3.05;;;;;;;19.04;72.18;101258.15;1736593;81;21186;-56
2022/07/19 06:14:08;;;;;;;2.90;1.17;;;;;;;19.13;71.99;101258.83;1744861;81;21278;-57
2022/07/19 06:17:17;;;;;;;1.57;0.93;;;;;;;19.21;71.82;101259.49;1732503;81;21719;-57
2022/07/19 06:20:34;;;;;;;2.70;1.10;;;;;;;19.30;71.75;101256.86;1758174;81;21221;-56
2022/07/19 06:23:51;;;;;;;1.60;1.10;;;;;;;19.42;71.75;101259.02;1737452;80;21734;-57
2022/07/19 06:27:01;;;;;;;2.95;1.00;;;;;;;19.53;71.69;101259.77;1737290;81;21215;-57
2022/07/19 06:30:11;;;;;;;31.93;25.92;;;;;;;19.64;71.67;101253.58;1735227;82;21234;-57
2022/07/19 06:33:23;;;;;;;3.77;2.87;;;;;;;19.75;71.60;101251.02;1738151;79;21186;-59
2022/07/19 06:36:34;;;;;;;1.02;1.00;;;;;;;19.87;71.49;101254.02;1750887;81;21217;-56
2022/07/19 06:39:45;;;;;;;1.17;0.85;;;;;;;19.96;71.41;101250.80;1750175;79;21236;-58
2022/07/19 06:42:52;;;;;;;2.83;1.10;;;;;;;20.10;71.37;101255.79;1739131;79;21208;-58
2022/07/19 06:46:02;;;;;;;3.33;1.15;;;;;;;20.20;71.29;101250.68;1765077;79;21192;-56
2022/07/19 06:49:10;;;;;;;3.40;0.95;;;;;;;20.33;71.19;101252.02;1773772;79;21214;-56
2022/07/19 06:52:17;;;;;;;1.32;0.70;;;;;;;20.43;71.01;101241.30;1756539;81;21801;-56
2022/07/19 06:55:25;;;;;;;0.95;0.68;;;;;;;20.53;70.81;101250.05;1756432;81;21778;-56
2022/07/19 06:58:38;;;;;;;1.30;0.60;;;;;;;20.62;70.64;101244.02;1756720;80;21190;-56
2022/07/19 07:01:46;;;;;;;1.60;0.72;;;;;;;20.73;70.53;101239.67;1740834;81;21309;-56
2022/07/19 07:05:00;;;;;;;1.02;0.80;;;;;;;20.87;70.45;101248.27;1739138;81;21411;-56
2022/07/19 07:08:06;;;;;;;1.07;0.80;;;;;;;21.01;70.28;101242.14;1767177;80;21722;-56
2022/07/19 07:11:18;;;;;;;0.70;0.70;;;;;;;21.13;70.12;101240.34;1772403;80;21177;-56
2022/07/19 07:14:25;;;;;;;2.45;0.80;;;;;;;21.25;69.99;101239.41;1767201;80;21531;-55
2022/07/19 07:17:43;;;;;;;1.10;0.82;;;;;;;21.39;69.84;101234.61;1764613;80;21721;-56
2022/07/19 07:20:49;;;;;;;0.78;0.68;;;;;;;21.50;69.70;101230.53;1738860;81;21193;-57
2022/07/19 07:23:57;;;;;;;1.67;0.90;;;;;;;21.61;69.56;101233.98;1766382;79;21238;-56
2022/07/19 07:27:04;;;;;;;3.60;0.85;;;;;;;21.70;69.45;101241.00;1758278;81;21372;-56
2022/07/19 07:30:15;;;;;;;2.02;0.80;;;;;;;21.79;69.34;101232.69;1757416;81;21206;-56
2022/07/19 07:33:27;;;;;;;1.17;0.70;;;;;;;21.88;69.21;101232.70;1768073;79;21226;-55
2022/07/19 07:37:00;;;;;;;2.77;2.22;;;;;;;21.97;69.02;101227.16;1757878;79;21379;-56
2022/07/19 07:40:20;;;;;;;0.98;0.80;;;;;;;22.12;68.99;101233.22;1788393;79;21225;-55
2022/07/19 07:43:28;;;;;;;0.62;0.62;;;;;;;22.19;68.65;101238.73;1783762;79;21726;-55
2022/07/19 07:46:36;;;;;;;0.82;0.70;;;;;;;22.19;68.38;101241.52;1767768;80;22133;-55
2022/07/19 07:49:44;;;;;;;1.47;1.05;;;;;;;22.18;68.26;101236.47;1762650;79;21182;-54
2022/07/19 07:52:50;;;;;;;1.95;0.70;;;;;;;22.23;68.30;101238.03;1738428;81;21394;-54
2022/07/19 07:55:56;;;;;;;1.02;0.60;;;;;;;22.36;68.30;101233.41;1729512;82;21209;-53
2022/07/19 07:59:07;;;;;;;1.05;0.60;;;;;;;22.47;68.11;101232.63;1762260;80;21224;-54
2022/07/19 08:02:14;;;;;;;1.22;0.70;;;;;;;22.54;67.99;101237.08;1761745;81;21267;-54
2022/07/19 08:05:24;;;;;;;1.57;0.42;;;;;;;22.65;67.78;101235.43;1716339;83;21232;-54
2022/07/19 08:08:32;;;;;;;1.30;0.45;;;;;;;22.68;67.50;101234.95;1781908;79;21731;-53
2022/07/19 08:11:44;;;;;;;1.05;0.60;;;;;;;22.65;67.27;101236.30;1792400;79;21181;-54
2022/07/19 08:14:52;;;;;;;3.30;1.47;;;;;;;22.60;67.15;101230.55;1788322;79;21236;-55
2022/07/19 08:18:00;;;;;;;1.57;0.78;;;;;;;22.67;67.21;101238.31;1791241;79;21180;-54
2022/07/19 08:21:10;;;;;;;2.50;0.68;;;;;;;22.78;67.15;101231.08;1785143;79;21248;-52
2022/07/19 08:24:19;;;;;;;1.02;0.70;;;;;;;22.89;67.11;101237.27;1770656;79;21201;-55
2022/07/19 08:27:27;;;;;;;3.77;0.90;;;;;;;23.00;67.04;101237.33;1770271;79;21780;-54
2022/07/19 08:30:35;;;;;;;1.15;0.50;;;;;;;23.12;66.82;101227.61;1775413;79;21189;-55
2022/07/19 08:33:44;;;;;;;0.78;0.53;;;;;;;23.21;66.67;101230.37;1777876;79;21695;-54
2022/07/19 08:36:52;;;;;;;3.00;0.70;;;;;;;23.30;66.59;101218.64;1747788;79;21212;-54
2022/07/19 08:40:00;;;;;;;0.50;0.47;;;;;;;23.49;66.55;101217.48;1759388;79;21774;-53
2022/07/19 08:43:11;;;;;;;1.15;0.70;;;;;;;23.67;66.29;101221.27;1773751;79;21255;-54
2022/07/19 08:46:17;;;;;;;0.65;0.62;;;;;;;23.68;65.92;101217.36;1801678;79;21243;-55
2022/07/19 08:49:26;;;;;;;1.20;0.60;;;;;;;23.64;65.59;101217.02;1797262;79;21223;-53
2022/07/19 08:52:32;;;;;;;1.22;1.02;;;;;;;23.62;65.44;101213.61;1805705;79;21275;-52
2022/07/19 08:55:38;;;;;;;1.57;0.70;;;;;;;23.75;65.46;101207.80;1767423;79;21189;-53
2022/07/19 08:58:47;;;;;;;1.02;0.62;;;;;;;23.80;65.24;101200.90;1740024;81;21165;-53
2022/07/19 09:01:56;;;;;;;0.55;0.53;;;;;;;23.86;65.08;101200.49;1752198;80;21248;-54
2022/07/19 09:05:17;;;;;;;1.82;0.60;;;;;;;23.91;64.88;101198.69;1737556;80;21189;-54
2022/07/19 09:08:26;;;;;;;0.55;0.55;;;;;;;23.99;64.65;101201.12;1755222;81;21209;-52
2022/07/19 09:11:51;;;;;;;0.93;0.65;;;;;;;24.00;64.44;101194.45;1750081;81;21279;-53
2022/07/19 09:14:52;;;;;;;1.40;0.78;;;;;;;24.07;64.44;101191.53;1734407;82;21205;-54
2022/07/19 09:18:05;;;;;;;0.82;0.70;;;;;;;24.13;64.21;101193.34;1700731;82;21864;-55
2022/07/19 09:21:14;;;;;;;1.27;1.00;;;;;;;24.19;64.04;101183.42;1753749;81;21429;-56
2022/07/19 09:24:23;;;;;;;0.95;0.50;;;;;;;24.21;63.76;101184.03;1749698;80;21331;-54
2022/07/19 09:27:30;;;;;;;3.10;0.50;;;;;;;24.29;63.63;101180.83;1752065;80;21232;-54
2022/07/19 09:30:46;;;;;;;0.70;0.50;;;;;;;24.35;63.42;101186.87;1769502;81;21319;-52
2022/07/19 09:33:54;;;;;;;1.92;0.70;;;;;;;24.42;63.25;101179.17;1768954;81;21200;-54
2022/07/19 09:37:20;;;;;;;1.42;0.60;;;;;;;24.42;63.07;101174.97;1682086;82;21295;-55
2022/07/19 09:40:30;;;;;;;1.05;0.62;;;;;;;24.41;62.88;101177.48;1708124;84;21252;-54
2022/07/19 09:43:36;;;;;;;2.37;0.57;;;;;;;24.43;62.69;101175.29;1789700;79;21208;-54
2022/07/19 09:46:49;;;;;;;0.62;0.53;;;;;;;24.55;62.63;101171.89;1737648;81;21237;-54
2022/07/19 09:49:57;;;;;;;1.00;0.57;;;;;;;24.64;62.35;101166.20;1740567;81;21193;-55
2022/07/19 09:53:06;;;;;;;5.85;0.55;;;;;;;24.76;62.30;101153.59;1737591;81;21233;-56
2022/07/19 09:56:12;;;;;;;0.82;0.50;;;;;;;24.93;62.04;101159.54;1748846;80;21730;-55
2022/07/19 09:59:18;;;;;;;1.15;0.60;;;;;;;25.11;61.90;101150.06;1758404;80;21244;-55
2022/07/19 10:02:26;;;;;;;0.75;0.50;;;;;;;25.35;61.71;101157.81;1802401;79;21215;-54
2022/07/19 10:05:40;;;;;;;0.82;0.60;;;;;;;25.47;61.36;101154.36;1794363;79;21362;-57
2022/07/19 10:08:50;;;;;;;1.60;0.68;;;;;;;25.46;61.01;101147.06;1778929;79;21311;-54
2022/07/19 10:11:57;;;;;;;1.00;0.70;;;;;;;25.52;60.78;101151.11;1791575;79;21749;-53
2022/07/19 10:15:03;;;;;;;0.88;0.70;;;;;;;25.56;60.46;101154.26;1767713;81;21585;-54
2022/07/19 10:18:23;;;;;;;2.00;0.70;;;;;;;25.55;60.29;101146.92;1745367;80;21225;-55
2022/07/19 10:21:34;;;;;;;3.00;0.75;;;;;;;25.63;60.00;101151.56;1753230;81;21229;-54
2022/07/19 10:24:59;;;;;;;1.45;0.70;;;;;;;25.48;59.60;101144.29;1728011;82;21228;-53
2022/07/19 10:28:07;;;;;;;1.72;0.80;;;;;;;25.33;59.43;101147.36;1696069;83;21208;-56
2022/07/19 10:31:37;;;;;;;6.08;0.70;;;;;;;25.40;59.59;101147.55;1729282;82;21223;-56
2022/07/19 10:34:51;;;;;;;1.95;0.93;;;;;;;25.47;59.43;101143.14;1713404;82;21728;-57
2022/07/19 10:37:54;;;;;;;1.25;0.70;;;;;;;25.36;59.07;101141.27;1733596;81;21244;-56
2022/07/19 10:41:02;;;;;;;0.90;0.68;;;;;;;25.21;58.85;101129.78;1789712;79;21726;-55
2022/07/19 10:44:16;;;;;;;2.52;1.05;;;;;;;25.04;58.75;101128.34;1786049;79;21260;-58
2022/07/19 10:47:29;;;;;;;5.35;1.62;;;;;;;24.92;58.64;101127.03;1751784;82;21310;-55
2022/07/19 10:50:58;;;;;;;3.52;1.27;;;;;;;24.77;58.55;101128.13;1751634;82;21197;-58
2022/07/19 10:54:11;;;;;;;1.95;1.20;;;;;;;24.67;58.38;101127.09;1722909;83;22049;-57
2022/07/19 10:57:23;;;;;;;4.72;1.05;;;;;;;24.52;58.27;101127.59;1774944;80;21216;-57
2022/07/19 11:00:34;;;;;;;2.40;0.75;;;;;;;24.32;58.09;101133.32;1778363;80;21221;-56
2022/07/19 11:03:42;;;;;;;3.80;0.90;;;;;;;24.04;58.06;101138.30;1777844;80;21201;-57
2022/07/19 11:06:49;;;;;;;2.08;0.82;;;;;;;23.87;58.13;101135.05;1791335;80;21574;-58
2022/07/19 11:09:58;;;;;;;2.12;1.10;;;;;;;23.75;58.17;101140.67;1772936;79;21358;-58
2022/07/19 11:12:52;;;;;;;;;;;;;;;23.67;58.17;101134.05;1787865;80;21200;-59
2022/07/19 11:15:41;;;;;;;1.42;1.00;;;;;;;23.60;58.12;101129.11;1783292;80;20329;-58
2022/07/19 11:18:37;;;;;;;3.58;1.00;;;;;;;23.57;58.12;101128.20;1767076;80;21196;-60
2022/07/19 11:21:32;;;;;;;1.05;0.80;;;;;;;23.59;58.14;101131.62;1751720;82;21393;-62
2022/07/19 11:24:26;;;;;;;1.27;0.78;;;;;;;23.63;58.02;101131.42;1746171;81;21227;-57
2022/07/19 11:27:13;;;;;;;3.27;1.20;;;;;;;23.69;57.92;101129.04;1740537;79;21205;-55
2022/07/19 11:30:09;;;;;;;1.65;1.20;;;;;;;23.79;57.85;101123.70;1776952;79;21921;-59
2022/07/19 11:33:26;;;;;;;1.95;1.10;;;;;;;23.90;57.71;101121.44;1703061;82;21368;-58
2022/07/19 11:36:39;;;;;;;1.37;0.82;;;;;;;24.06;57.56;101121.26;1765198;79;21252;-59
2022/07/19 11:39:57;;;;;;;3.00;1.20;;;;;;;24.12;57.31;101104.34;1772976;78;21228;-58
2022/07/19 11:43:04;;;;;;;1.85;1.17;;;;;;;24.25;57.24;101105.47;1766410;80;21307;-57
2022/07/19 11:46:15;;;;;;;5.50;2.10;;;;;;;24.44;57.15;101106.12;1757759;79;21276;-58
2022/07/19 11:49:20;;;;;;;3.92;1.10;;;;;;;24.60;57.05;101109.00;1748462;80;21805;-57
2022/07/19 11:52:28;;;;;;;4.30;0.72;;;;;;;24.81;56.87;101103.27;1756749;79;21196;-57
2022/07/19 11:55:40;;;;;;;4.85;0.98;;;;;;;24.97;56.57;101098.25;1763434;80;21676;-58
2022/07/19 11:58:45;;;;;;;1.60;0.80;;;;;;;25.18;56.49;101095.25;1756132;80;21742;-58
2022/07/19 12:01:57;;;;;;;0.80;0.80;;;;;;;25.39;56.33;101102.37;1725742;81;21276;-55
2022/07/19 12:05:11;;;;;;;2.77;0.88;;;;;;;25.48;56.04;101097.19;1759406;79;21999;-59
2022/07/19 12:08:22;;;;;;;1.15;0.80;;;;;;;25.48;55.79;101100.00;1742850;81;21587;-58
2022/07/19 12:11:30;;;;;;;3.77;0.70;;;;;;;25.44;55.53;101088.44;1761131;81;21217;-57
2022/07/19 12:14:40;;;;;;;1.47;0.78;;;;;;;25.35;55.30;101089.12;1764177;81;21236;-59
2022/07/19 12:17:46;;;;;;;1.65;0.60;;;;;;;25.32;55.25;101087.66;1764836;81;21761;-57
2022/07/19 12:21:13;;;;;;;2.77;1.00;;;;;;;25.43;55.18;101087.30;1764045;81;21566;-57
2022/07/19 12:24:25;;;;;;;1.67;1.00;;;;;;;25.47;54.89;101082.86;1739997;81;21741;-58
2022/07/19 12:27:32;;;;;;;1.40;0.80;;;;;;;25.42;54.69;101084.20;1736078;82;21718;-58
2022/07/19 12:30:39;;;;;;;1.62;0.80;;;;;;;25.39;54.54;101080.48;1732238;82;21534;-59
2022/07/19 12:33:45;;;;;;;3.90;1.00;;;;;;;25.34;54.36;101081.25;1735896;82;21714;-57
2022/07/19 12:36:51;;;;;;;1.75;0.93;;;;;;;25.30;54.27;101077.25;1741539;81;21727;-58
2022/07/19 12:40:24;;;;;;;1.32;0.70;;;;;;;25.30;54.14;101073.04;1740247;81;21327;-58
2022/07/19 12:43:29;;;;;;;1.73;0.80;;;;;;;25.31;54.03;101073.33;1762486;81;21255;-58
2022/07/19 12:46:36;;;;;;;0.90;0.70;;;;;;;25.33;53.88;101071.13;1766558;80;21260;-58
2022/07/19 12:49:51;;;;;;;1.62;0.90;;;;;;;25.33;53.72;101066.91;1753679;81;21236;-58
2022/07/19 12:52:58;;;;;;;4.53;1.25;;;;;;;25.33;53.54;101066.91;1765571;80;21414;-58
2022/07/19 12:56:05;;;;;;;2.33;1.00;;;;;;;25.31;53.37;101061.28;1738403;81;21387;-58
2022/07/19 13:02:33;;;;;;;2.08;0.90;;;;;;;25.22;53.12;101059.45;1748549;81;21316;-60
2022/07/19 13:05:39;;;;;;;1.98;0.70;;;;;;;25.25;53.07;101058.08;1743992;81;21721;-59
2022/07/19 13:08:47;;;;;;;1.22;0.80;;;;;;;25.31;53.10;101059.88;1737009;82;21189;-56
2022/07/19 13:11:53;;;;;;;2.20;0.90;;;;;;;25.40;52.96;101061.17;1737256;82;21201;-57
2022/07/19 13:14:59;;;;;;;1.52;0.72;;;;;;;25.43;52.82;101054.51;1736780;82;21868;-57
2022/07/19 13:18:05;;;;;;;6.00;0.78;;;;;;;25.46;52.71;101046.12;1737102;82;21423;-57
2022/07/19 13:21:15;;;;;;;1.95;0.88;;;;;;;25.51;52.63;101051.81;1737250;82;21272;-58
2022/07/19 13:24:28;;;;;;;2.47;0.98;;;;;;;25.62;52.55;101041.90;1742736;81;21399;-58
2022/07/19 13:27:36;;;;;;;4.45;0.90;;;;;;;25.72;52.44;101036.98;1761025;81;21209;-61
2022/07/19 13:30:42;;;;;;;2.40;0.85;;;;;;;25.77;52.34;101035.62;1713163;82;21197;-58
2022/07/19 13:33:50;;;;;;;3.35;1.00;;;;;;;25.84;52.26;101036.30;1733325;82;21730;-59
2022/07/19 13:36:56;;;;;;;2.15;0.65;;;;;;;25.95;52.06;101037.58;1741921;81;21826;-59
2022/07/19 13:40:02;;;;;;;2.12;0.80;;;;;;;25.98;51.93;101034.25;1729898;81;21264;-55
2022/07/19 13:43:08;;;;;;;2.37;0.75;;;;;;;26.06;51.89;101030.16;1736825;81;21296;-59
2022/07/19 13:46:14;;;;;;;2.77;0.72;;;;;;;26.09;51.68;101033.84;1759706;81;21695;-59
2022/07/19 13:49:21;;;;;;;2.27;0.65;;;;;;;26.02;51.50;101024.22;1749878;81;21746;-58
2022/07/19 13:52:31;;;;;;;1.95;0.85;;;;;;;26.01;51.43;101030.09;1755100;81;21217;-59
2022/07/19 13:55:38;;;;;;;2.05;0.75;;;;;;;25.97;51.30;101031.71;1753978;81;21873;-57
2022/07/19 13:58:46;;;;;;;1.67;0.80;;;;;;;25.90;51.17;101026.29;1754304;81;21244;-59
2022/07/19 14:01:54;;;;;;;3.98;1.10;;;;;;;25.81;51.08;101027.00;1757874;81;21260;-59
2022/07/19 14:05:02;;;;;;;5.05;1.00;;;;;;;25.72;51.05;101029.39;1734995;81;21204;-59
2022/07/19 14:08:07;;;;;;;2.47;1.05;;;;;;;25.62;50.98;101029.82;1738053;81;21205;-57
2022/07/19 14:11:14;;;;;;;3.15;0.90;;;;;;;25.49;50.83;101024.57;1735917;82;21249;-57
2022/07/19 14:14:22;;;;;;;2.77;0.80;;;;;;;25.37;50.81;101018.23;1736928;82;21169;-56
2022/07/19 14:17:28;;;;;;;3.08;0.90;;;;;;;25.30;50.79;101014.72;1737036;81;21750;-59
2022/07/19 14:20:36;;;;;;;6.03;0.90;;;;;;;25.21;50.70;101017.66;1736636;82;21205;-57
2022/07/19 14:23:44;;;;;;;0.70;0.60;;;;;;;25.13;50.72;101017.55;1736921;81;21323;-57
2022/07/19 14:26:51;;;;;;;2.40;1.17;;;;;;;25.16;50.76;101014.77;1741160;81;21197;-57
2022/07/19 14:29:59;;;;;;;1.20;0.95;;;;;;;25.33;50.73;101017.00;1737487;82;21380;-55
2022/07/19 14:33:05;;;;;;;1.70;1.12;;;;;;;25.59;50.71;101012.97;1737165;82;21214;-57
2022/07/19 14:36:11;;;;;;;1.95;1.20;;;;;;;25.75;50.48;101016.83;1737299;82;21211;-58
2022/07/19 14:39:18;;;;;;;2.17;1.17;;;;;;;25.77;50.39;101017.39;1728064;82;21230;-58
2022/07/19 14:42:24;;;;;;;1.25;1.00;;;;;;;25.79;50.27;101008.17;1756442;81;21205;-58